Time;durP1;ratioP1;P1;durP2;ratioP2;P2;SDS_P1;SDS_P2;PMS_P1;PMS_P2;Temp;Humidity;BMP_temperature;BMP_pressure;BME280_temperature;BME280_humidity;BME280_pressure;Samples;Min_cycle;Max_cycle;Signal;HPM_P1;HPM_P2
2022/08/04 00:00:01;;;;;;;7.95;4.85;;;;;;;22.05;59.04;99316.66;5035245;28;20045;-71
2022/08/04 00:02:40;;;;;;;4.97;2.80;;;;;;;21.99;58.93;99311.06;5032181;28;20132;-70
2022/08/04 00:05:17;;;;;;;5.38;2.83;;;;;;;21.94;58.72;99308.88;5026042;28;20059;-70
2022/08/04 00:07:52;;;;;;;5.80;3.50;;;;;;;21.90;59.03;99303.97;5032362;28;20041;-70
2022/08/04 00:10:19;;;;;;;8.40;2.85;;;;;;;21.79;60.39;99305.09;5031482;28;20049;-70
2022/08/04 00:12:49;;;;;;;5.22;2.25;;;;;;;21.75;59.49;99307.25;5031260;28;20061;-69
2022/08/04 00:15:18;;;;;;;3.10;1.70;;;;;;;21.77;59.31;99313.31;5030640;28;20042;-70
2022/08/04 00:17:49;;;;;;;3.15;2.10;;;;;;;21.76;59.59;99306.28;5031617;28;20707;-70
2022/08/04 00:20:20;;;;;;;5.57;2.20;;;;;;;21.77;59.47;99305.25;5031337;28;20473;-71
2022/08/04 00:22:48;;;;;;;3.60;2.10;;;;;;;21.76;59.22;99297.38;5020618;28;20125;-70
2022/08/04 00:25:15;;;;;;;4.43;2.08;;;;;;;21.71;59.43;99302.34;5030995;28;20081;-70
2022/08/04 00:27:41;;;;;;;5.00;2.05;;;;;;;21.68;59.89;99297.31;5031685;28;20046;-70
2022/08/04 00:30:09;;;;;;;6.28;2.38;;;;;;;21.66;59.47;99297.50;5031469;28;20060;-70
2022/08/04 00:32:36;;;;;;;2.75;2.03;;;;;;;21.68;59.74;99286.59;5031590;28;20053;-70
2022/08/04 00:35:06;;;;;;;3.95;2.00;;;;;;;21.66;59.68;99294.81;5030934;28;20052;-70
2022/08/04 00:37:33;;;;;;;5.60;2.67;;;;;;;21.64;59.66;99294.97;5031448;28;20052;-70
2022/08/04 00:40:03;;;;;;;6.78;2.42;;;;;;;21.58;59.73;99298.25;5031318;28;20049;-70
2022/08/04 00:42:41;;;;;;;6.45;2.42;;;;;;;21.51;59.77;99294.56;5031294;28;20056;-70
2022/08/04 00:45:58;;;;;;;10.30;3.17;;;;;;;21.50;60.12;99300.06;5030832;28;20065;-70
2022/08/04 00:48:38;;;;;;;6.28;2.40;;;;;;;21.48;60.08;99296.69;4990735;28;20188;-70
2022/08/04 00:51:15;;;;;;;4.53;2.28;;;;;;;21.43;60.21;99292.63;5030810;28;20067;-70
2022/08/04 00:53:55;;;;;;;7.38;2.17;;;;;;;21.36;60.40;99288.88;5030949;28;20580;-70
2022/08/04 00:56:49;;;;;;;2.85;2.03;;;;;;;21.29;60.86;99285.16;5027399;28;20049;-70
2022/08/04 00:59:34;;;;;;;5.00;1.92;;;;;;;21.21;61.08;99288.59;5030522;28;20132;-70
2022/08/04 01:02:09;;;;;;;4.18;1.95;;;;;;;21.12;61.38;99291.38;5022533;28;20490;-69
2022/08/04 01:04:49;;;;;;;3.58;1.85;;;;;;;21.06;61.61;99290.16;5030008;28;20056;-69
2022/08/04 01:07:37;;;;;;;5.65;1.95;;;;;;;21.09;61.04;99287.16;5030637;28;20053;-69
2022/08/04 01:10:07;;;;;;;4.18;1.75;;;;;;;21.10;60.85;99274.63;5030652;28;20049;-70
2022/08/04 01:12:52;;;;;;;8.02;2.22;;;;;;;21.04;61.48;99278.72;5031009;28;20132;-68
2022/08/04 01:15:30;;;;;;;7.72;2.40;;;;;;;20.95;61.82;99275.16;5030786;28;20041;-70
2022/08/04 01:18:05;;;;;;;3.80;2.20;;;;;;;20.94;61.94;99276.13;5032508;28;20382;-71
2022/08/04 01:20:34;;;;;;;3.70;1.88;;;;;;;20.94;61.80;99275.31;5031500;28;20052;-69
2022/08/04 01:23:37;;;;;;;9.93;3.55;;;;;;;20.89;62.01;99272.25;5020512;28;20076;-69
2022/08/04 01:26:36;;;;;;;7.63;2.92;;;;;;;20.79;62.32;99272.31;5027223;28;20076;-69
2022/08/04 01:29:08;;;;;;;5.95;2.00;;;;;;;20.71;62.34;99275.78;5028945;28;20060;-69
2022/08/04 01:31:42;;;;;;;3.00;1.98;;;;;;;20.67;62.54;99277.06;5030122;28;20107;-70
2022/08/04 01:34:12;;;;;;;6.13;2.67;;;;;;;20.64;62.57;99272.03;5029434;28;20053;-70
2022/08/04 01:36:45;;;;;;;5.38;1.92;;;;;;;20.61;63.18;99264.31;5030168;28;20077;-69
2022/08/04 01:41:56;;;;;;;7.30;2.00;;;;;;;20.50;63.42;99259.13;5029805;28;20508;-70
2022/08/04 01:44:27;;;;;;;3.92;1.80;;;;;;;20.45;63.42;99261.41;5029614;28;20052;-70
2022/08/04 01:46:53;;;;;;;7.28;2.15;;;;;;;20.40;63.32;99255.69;5030260;28;20520;-73
2022/08/04 01:49:22;;;;;;;3.78;1.73;;;;;;;20.42;63.32;99256.38;5030858;28;20048;-70
2022/08/04 01:51:50;;;;;;;3.75;2.05;;;;;;;20.41;63.35;99258.22;5031128;28;20057;-69
2022/08/04 01:54:18;;;;;;;4.15;2.53;;;;;;;20.38;63.43;99251.31;5029425;28;20618;-69
2022/08/04 01:56:46;;;;;;;4.78;2.42;;;;;;;20.39;63.47;99252.16;5029620;28;20080;-69
2022/08/04 01:59:17;;;;;;;3.72;1.70;;;;;;;20.37;63.42;99249.63;5029772;28;20041;-70
2022/08/04 02:01:45;;;;;;;8.23;2.10;;;;;;;20.36;63.56;99247.13;5026416;28;20459;-70
2022/08/04 02:04:14;;;;;;;6.63;2.15;;;;;;;20.34;63.45;99249.94;5009079;28;20056;-69
2022/08/04 02:06:57;;;;;;;6.47;2.22;;;;;;;20.34;63.42;99246.41;5010004;28;20049;-69
2022/08/04 02:09:30;;;;;;;4.05;2.08;;;;;;;20.32;63.42;99246.56;5017515;28;20041;-70
2022/08/04 02:12:04;;;;;;;6.60;2.25;;;;;;;20.30;63.59;99239.69;5029426;28;20045;-70
2022/08/04 02:14:41;;;;;;;7.07;2.20;;;;;;;20.30;63.59;99239.69;5028750;28;20141;-70
2022/08/04 02:17:12;;;;;;;5.68;2.35;;;;;;;20.28;63.38;99238.97;5029548;28;20692;-69
2022/08/04 02:19:58;;;;;;;6.85;2.42;;;;;;;20.28;63.50;99238.97;5029363;28;20049;-70
2022/08/04 02:22:28;;;;;;;2.65;1.80;;;;;;;20.26;63.33;99230.28;5018490;28;20052;-69
2022/08/04 02:25:06;;;;;;;3.38;1.98;;;;;;;20.28;63.28;99239.84;5028493;28;20059;-69
2022/08/04 02:27:54;;;;;;;2.90;1.80;;;;;;;20.27;63.17;99235.47;5029282;28;20148;-69
2022/08/04 02:30:21;;;;;;;3.05;1.90;;;;;;;20.26;63.24;99238.31;5029276;28;20048;-69
2022/08/04 02:32:57;;;;;;;4.50;2.08;;;;;;;20.23;63.34;99235.91;5029253;28;20049;-69
2022/08/04 02:35:27;;;;;;;5.35;2.20;;;;;;;20.14;63.51;99224.28;5028487;28;20420;-70
2022/08/04 02:38:01;;;;;;;7.97;1.90;;;;;;;20.10;63.42;99220.22;5029397;28;20069;-70
2022/08/04 02:40:30;;;;;;;5.22;2.13;;;;;;;20.05;63.95;99225.19;5029186;28;20049;-70
2022/08/04 02:42:57;;;;;;;6.00;2.20;;;;;;;19.96;64.30;99218.91;5029160;28;20115;-70
2022/08/04 02:45:26;;;;;;;4.10;2.35;;;;;;;19.87;64.71;99226.00;5031363;28;20049;-69
2022/08/04 02:47:57;;;;;;;4.47;2.25;;;;;;;19.91;64.55;99222.03;5032776;28;20104;-69
2022/08/04 02:50:25;;;;;;;4.00;2.25;;;;;;;19.91;64.66;99215.81;5033162;28;20049;-69
2022/08/04 02:52:52;;;;;;;5.53;2.28;;;;;;;19.90;64.53;99214.97;5032852;28;20515;-70
2022/08/04 02:55:19;;;;;;;8.40;2.08;;;;;;;19.90;64.47;99214.16;5032390;28;20051;-70
2022/08/04 02:57:49;;;;;;;2.45;1.75;;;;;;;19.87;64.62;99217.13;5030548;28;20525;-70
2022/08/04 03:00:18;;;;;;;5.93;2.30;;;;;;;19.79;64.95;99206.31;5013058;28;20078;-71
2022/08/04 03:03:02;;;;;;;4.55;2.17;;;;;;;19.72;65.20;99211.44;5013227;28;20061;-71
2022/08/04 03:05:43;;;;;;;4.55;2.40;;;;;;;19.67;65.74;99205.66;5012833;28;20058;-70
2022/08/04 03:08:41;;;;;;;9.13;2.80;;;;;;;19.69;65.22;99209.03;5013243;28;20046;-70
2022/08/04 03:11:28;;;;;;;4.32;2.05;;;;;;;19.73;65.27;99205.09;5006262;28;20046;-70
2022/08/04 03:14:28;;;;;;;13.40;2.88;;;;;;;19.71;65.12;99209.72;5012782;28;20050;-71
2022/08/04 03:17:27;;;;;;;4.82;2.30;;;;;;;19.72;65.05;99206.09;5013276;28;20061;-70
2022/08/04 03:20:32;;;;;;;6.57;2.40;;;;;;;19.68;65.17;99205.53;5009075;28;20093;-70
2022/08/04 03:23:34;;;;;;;5.75;2.50;;;;;;;19.65;65.18;99200.44;5021715;28;20052;-70
2022/08/04 03:26:33;;;;;;;2.95;2.08;;;;;;;19.59;65.33;99195.72;5032024;28;20049;-71
2022/08/04 03:29:35;;;;;;;5.13;2.10;;;;;;;19.60;65.23;99193.88;5032476;28;20045;-70
2022/08/04 03:32:25;;;;;;;2.95;1.92;;;;;;;19.58;65.38;99198.50;5032659;28;20525;-72
2022/08/04 03:35:09;;;;;;;4.10;2.00;;;;;;;19.58;65.31;99203.88;5031995;28;20699;-69
2022/08/04 03:37:59;;;;;;;10.85;2.53;;;;;;;19.56;65.46;99209.34;5032517;28;20050;-69
2022/08/04 03:40:53;;;;;;;5.70;1.95;;;;;;;19.55;65.53;99205.00;5032381;28;20045;-70
2022/08/04 03:44:04;;;;;;;5.75;2.38;;;;;;;19.53;65.53;99201.63;5032056;28;20752;-70
2022/08/04 03:46:43;;;;;;;5.13;2.67;;;;;;;19.44;65.93;99197.16;5021508;28;20553;-70
2022/08/04 03:49:59;;;;;;;7.15;2.80;;;;;;;19.41;66.20;99192.94;5031802;28;20128;-71
2022/08/04 03:56:11;;;;;;;6.05;2.30;;;;;;;19.27;66.67;99196.09;5010799;28;20212;-70
2022/08/04 03:59:06;;;;;;;8.32;3.35;;;;;;;19.22;66.75;99195.69;4998443;28;20057;-69
2022/08/04 04:02:06;;;;;;;4.28;2.20;;;;;;;19.12;67.27;99200.22;5014074;28;20535;-69
2022/08/04 04:05:06;;;;;;;6.25;2.85;;;;;;;19.14;67.34;99198.25;5011024;28;20046;-69
2022/08/04 04:08:04;;;;;;;8.27;2.85;;;;;;;19.12;67.36;99190.34;5008627;28;20052;-68
2022/08/04 04:11:14;;;;;;;9.05;2.28;;;;;;;19.18;66.95;99202.31;5011662;28;20046;-70
2022/08/04 04:14:05;;;;;;;5.07;2.20;;;;;;;19.23;66.82;99194.72;5011234;28;20049;-69
2022/08/04 04:16:58;;;;;;;5.47;2.65;;;;;;;19.24;66.94;99201.72;5011239;28;20703;-70
2022/08/04 04:20:09;;;;;;;13.05;2.78;;;;;;;19.21;67.16;99199.34;5030819;28;20450;-70
2022/08/04 04:22:53;;;;;;;7.70;2.20;;;;;;;19.23;66.98;99206.22;4969607;28;20046;-70
2022/08/04 04:25:34;;;;;;;4.35;2.22;;;;;;;19.25;66.85;99204.25;4969177;28;20141;-69
2022/08/04 04:28:21;;;;;;;3.75;2.88;;;;;;;19.30;66.79;99212.69;5015007;28;20046;-70
2022/08/04 04:30:57;;;;;;;6.78;2.70;;;;;;;19.31;66.89;99203.66;5031316;28;20050;-69
2022/08/04 04:33:43;;;;;;;6.18;3.33;;;;;;;19.31;66.69;99203.66;5031366;28;20140;-70
2022/08/04 04:36:16;;;;;;;7.38;2.60;;;;;;;19.29;67.20;99210.16;5030430;28;20409;-70
2022/08/04 04:39:01;;;;;;;13.40;3.85;;;;;;;19.27;67.28;99207.63;5031344;28;20049;-70
2022/08/04 04:41:43;;;;;;;5.10;2.23;;;;;;;19.25;67.65;99209.59;5031193;28;20049;-69
2022/08/04 04:44:48;;;;;;;8.05;2.88;;;;;;;19.29;67.58;99207.47;5030302;28;20288;-70
2022/08/04 04:47:23;;;;;;;8.63;2.22;;;;;;;19.32;67.43;99209.88;5024839;28;20047;-69
2022/08/04 04:50:00;;;;;;;;;;;;;;;19.34;67.48;99207.88;5031312;28;20051;-71
2022/08/04 04:52:36;;;;;;;4.65;2.28;;;;;;;19.40;67.35;99201.97;5028864;28;19937;-70
2022/08/04 04:55:13;;;;;;;6.75;3.20;;;;;;;19.46;67.26;99205.88;5010268;28;20046;-69
2022/08/04 04:57:42;;;;;;;4.85;2.70;;;;;;;19.49;67.57;99200.22;5010973;28;20085;-70
2022/08/04 05:00:12;;;;;;;6.10;2.45;;;;;;;19.54;67.39;99208.66;5010888;28;20046;-70
2022/08/04 05:03:05;;;;;;;6.50;2.63;;;;;;;19.63;67.23;99202.41;5010814;28;20081;-69
2022/08/04 05:05:53;;;;;;;9.75;2.72;;;;;;;19.74;67.13;99212.13;5010138;28;20502;-70
2022/08/04 05:08:56;;;;;;;10.27;2.63;;;;;;;19.81;67.05;99202.50;5009916;28;20520;-69
2022/08/04 05:11:53;;;;;;;11.88;3.28;;;;;;;19.90;66.83;99209.63;4990251;28;20137;-69
2022/08/04 05:14:27;;;;;;;3.88;2.20;;;;;;;19.98;66.87;99213.41;5009885;28;20115;-70
2022/08/04 05:17:01;;;;;;;7.30;2.87;;;;;;;20.04;66.73;99212.81;5010700;28;20046;-70
2022/08/04 05:19:39;;;;;;;6.55;2.83;;;;;;;20.15;66.36;99208.06;5010585;28;20053;-70
2022/08/04 05:22:11;;;;;;;12.77;2.75;;;;;;;20.22;66.55;99210.16;5012096;28;20065;-70
2022/08/04 05:24:41;;;;;;;8.05;2.40;;;;;;;20.26;66.74;99204.34;5029632;28;20049;-70
2022/08/04 05:27:16;;;;;;;7.20;3.17;;;;;;;20.32;66.73;99206.41;5030377;28;20050;-69
2022/08/04 05:29:49;;;;;;;5.63;2.70;;;;;;;20.37;66.92;99201.44;5030322;28;20485;-70
2022/08/04 05:32:19;;;;;;;6.80;3.05;;;;;;;20.44;66.59;99201.66;5030238;28;20049;-71
2022/08/04 05:34:52;;;;;;;4.63;2.67;;;;;;;20.48;67.05;99200.38;5030097;28;20053;-71
2022/08/04 05:37:22;;;;;;;6.25;3.15;;;;;;;20.57;66.88;99199.47;5030540;28;20061;-72
2022/08/04 05:39:54;;;;;;;5.82;2.95;;;;;;;20.68;66.60;99198.41;5030196;28;20047;-71
2022/08/04 05:42:22;;;;;;;2.90;2.08;;;;;;;20.82;66.22;99206.88;5029769;28;20045;-70
2022/08/04 05:44:49;;;;;;;4.72;3.42;;;;;;;20.92;66.21;99197.78;5029210;28;20063;-70
2022/08/04 05:47:17;;;;;;;9.02;3.35;;;;;;;21.01;66.12;99195.97;5030127;28;20144;-69
2022/08/04 05:49:44;;;;;;;10.77;4.43;;;;;;;21.15;66.02;99205.28;5029947;28;20041;-69
2022/08/04 05:52:12;;;;;;;9.00;3.45;;;;;;;21.26;66.08;99185.41;5029684;28;20572;-70
2022/08/04 05:54:41;;;;;;;6.45;2.80;;;;;;;;;;5028905;28;20103;-70
2022/08/04 05:57:08;;;;;;;7.15;3.25;;;;;;;21.50;66.07;99200.81;5029585;28;20409;-69
2022/08/04 05:59:41;;;;;;;6.60;3.08;;;;;;;21.59;65.79;99194.50;5029584;28;20041;-70
2022/08/04 06:02:09;;;;;;;6.85;3.65;;;;;;;21.71;65.78;99189.66;5029905;28;20428;-69
2022/08/04 06:04:39;;;;;;;9.98;3.35;;;;;;;21.80;65.71;99191.38;5028648;28;20045;-69
2022/08/04 06:07:07;;;;;;;7.97;3.58;;;;;;;21.94;65.44;99189.94;5019272;28;20045;-69
2022/08/04 06:09:34;;;;;;;6.75;3.65;;;;;;;22.09;65.46;99183.75;5009690;28;20045;-69
2022/08/04 06:12:06;;;;;;;4.88;2.38;;;;;;;22.23;65.70;99187.69;5009730;28;20132;-70
2022/08/04 06:14:38;;;;;;;6.38;3.17;;;;;;;22.38;65.40;99185.19;5008888;28;20081;-71
2022/08/04 06:17:07;;;;;;;9.30;3.38;;;;;;;22.55;65.09;99188.75;5016644;28;20045;-69
2022/08/04 06:19:35;;;;;;;6.72;3.08;;;;;;;22.71;64.69;99185.19;5028900;28;20055;-71
2022/08/04 06:22:05;;;;;;;4.95;2.45;;;;;;;22.88;64.16;99191.41;5018220;28;20104;-69
2022/08/04 06:24:35;;;;;;;9.30;3.40;;;;;;;23.05;63.77;99184.22;5028859;28;20053;-69
2022/08/04 06:27:05;;;;;;;4.65;3.22;;;;;;;23.25;63.46;99185.50;5029827;28;20050;-69
2022/08/04 06:29:35;;;;;;;6.60;2.58;;;;;;;23.47;58.16;99186.63;5029231;28;20045;-69
2022/08/04 06:32:12;;;;;;;4.10;2.75;;;;;;;23.82;59.60;99197.94;5030864;28;20049;-70
2022/08/04 06:34:39;;;;;;;6.22;3.28;;;;;;;24.07;58.79;99189.75;5035788;28;20081;-69
2022/08/04 06:37:08;;;;;;;4.22;2.70;;;;;;;24.32;56.51;99193.16;5036838;28;20105;-70
2022/08/04 06:39:35;;;;;;;9.20;2.38;;;;;;;24.57;55.00;99194.69;5037770;28;20124;-70
2022/08/04 06:42:05;;;;;;;4.45;2.30;;;;;;;24.85;54.94;99199.50;5038578;28;20170;-72
2022/08/04 06:44:32;;;;;;;3.63;2.42;;;;;;;25.10;53.84;99201.97;5037748;28;20113;-72
2022/08/04 06:47:00;;;;;;;3.83;2.05;;;;;;;25.40;51.40;99198.31;5037506;28;20055;-70
2022/08/04 06:49:28;;;;;;;4.00;2.25;;;;;;;25.68;49.78;99203.06;5037518;28;20060;-71
2022/08/04 06:51:56;;;;;;;7.70;2.35;;;;;;;25.96;49.36;99199.69;5038937;28;20059;-71
2022/08/04 06:54:23;;;;;;;5.88;2.67;;;;;;;26.24;47.06;99200.66;5031222;28;20047;-70
2022/08/04 06:56:52;;;;;;;4.63;2.30;;;;;;;26.53;46.40;99204.28;5016348;28;20050;-71
2022/08/04 06:59:21;;;;;;;5.55;2.00;;;;;;;26.77;47.55;99201.19;5010133;28;20050;-49
2022/08/04 07:01:49;;;;;;;2.92;2.35;;;;;;;26.98;48.76;99203.06;5037787;28;20421;-50
2022/08/04 07:04:16;;;;;;;3.53;2.15;;;;;;;27.14;47.07;99198.38;5047975;28;20052;-61
2022/08/04 07:06:43;;;;;;;6.35;2.40;;;;;;;27.31;45.83;99205.19;5048842;28;20045;-54
2022/08/04 07:09:10;;;;;;;5.35;1.92;;;;;;;27.48;45.99;99207.59;5048755;28;20139;-68
2022/08/04 07:11:37;;;;;;;7.18;2.33;;;;;;;27.59;46.00;99198.88;5048405;28;20527;-67
2022/08/04 07:14:05;;;;;;;6.32;2.67;;;;;;;27.73;46.78;99194.38;5047032;28;20463;-51
2022/08/04 07:16:34;;;;;;;4.57;3.15;;;;;;;27.88;45.78;99199.69;5041869;28;20478;-50
2022/08/04 07:19:01;;;;;;;5.82;3.67;;;;;;;28.01;45.25;99197.06;5021001;28;20076;-50
2022/08/04 07:21:28;;;;;;;6.70;2.85;;;;;;;28.14;44.47;99193.53;5026495;28;20049;-51
2022/08/04 07:23:54;;;;;;;4.63;2.90;;;;;;;28.25;44.07;99192.94;5028420;28;20045;-56
2022/08/04 07:26:27;;;;;;;3.92;2.72;;;;;;;28.41;43.59;99198.00;5028664;28;20053;-51
2022/08/04 07:28:54;;;;;;;8.10;2.63;;;;;;;28.48;44.26;99195.31;5028712;28;20060;-53
2022/08/04 07:31:23;;;;;;;4.25;2.92;;;;;;;28.61;43.60;99197.22;5030916;28;20049;-50
2022/08/04 07:33:52;;;;;;;2.78;2.25;;;;;;;28.74;44.00;99196.38;5032402;28;20053;-51
2022/08/04 07:36:18;;;;;;;4.28;2.53;;;;;;;28.93;43.99;99194.72;5032029;28;20449;-49
2022/08/04 07:38:45;;;;;;;5.28;2.92;;;;;;;29.11;43.28;99189.53;5031961;28;20074;-51
2022/08/04 07:41:12;;;;;;;4.00;2.33;;;;;;;29.37;40.57;99187.81;5040215;28;20578;-68
2022/08/04 07:43:39;;;;;;;4.20;2.35;;;;;;;29.94;41.25;99189.75;5033150;28;20053;-69
2022/08/04 07:46:06;;;;;;;7.75;2.15;;;;;;;30.36;39.33;99189.34;5038509;28;20764;-68
2022/08/04 07:48:33;;;;;;;5.43;2.15;;;;;;;30.55;36.42;99193.81;5051241;28;20072;-68
2022/08/04 07:51:01;;;;;;;3.05;1.73;;;;;;;30.73;36.25;99198.50;5051075;28;20531;-68
2022/08/04 07:53:29;;;;;;;7.80;2.35;;;;;;;30.88;35.84;99191.94;5037907;28;20041;-68
2022/08/04 07:55:56;;;;;;;3.53;1.60;;;;;;;31.02;35.35;99193.50;5037451;28;20493;-68
2022/08/04 07:58:23;;;;;;;6.85;2.25;;;;;;;31.22;34.69;99188.69;5032066;28;20147;-67
2022/08/04 08:00:50;;;;;;;5.25;1.77;;;;;;;31.60;33.62;99192.28;5030921;28;20136;-67
2022/08/04 08:03:19;;;;;;;6.43;1.63;;;;;;;32.07;32.90;99196.16;5017724;28;20049;-68
2022/08/04 08:05:45;;;;;;;3.33;1.50;;;;;;;32.60;31.35;99191.84;5010358;28;20096;-68
2022/08/04 08:08:14;;;;;;;4.75;1.73;;;;;;;33.09;30.78;99199.91;5011067;28;20053;-69
2022/08/04 08:10:46;;;;;;;3.92;2.10;;;;;;;33.64;29.85;99190.50;5010460;28;20669;-69
2022/08/04 08:13:13;;;;;;;4.53;2.00;;;;;;;33.74;29.30;99191.53;5010646;28;20042;-68
2022/08/04 08:15:41;;;;;;;5.00;2.08;;;;;;;33.84;29.49;99187.38;5009902;28;20502;-66
2022/08/04 08:18:08;;;;;;;3.55;2.17;;;;;;;34.07;28.34;99191.94;5010705;28;20472;-69
2022/08/04 08:20:34;;;;;;;6.18;2.20;;;;;;;34.03;28.41;99188.03;5010829;28;20046;-67
2022/08/04 08:23:02;;;;;;;7.95;1.85;;;;;;;33.86;28.12;99191.53;5018313;28;20073;-68
2022/08/04 08:25:32;;;;;;;8.07;2.28;;;;;;;33.77;28.41;99190.25;5028704;28;20057;-67
2022/08/04 08:27:59;;;;;;;6.57;2.13;;;;;;;33.61;28.88;99193.72;5029723;28;20505;-68
2022/08/04 08:30:26;;;;;;;8.50;2.42;;;;;;;33.48;28.85;99195.63;5029416;28;20041;-68
2022/08/04 08:32:52;;;;;;;5.40;2.63;;;;;;;33.44;29.78;99201.81;5029546;28;20049;-69
2022/08/04 08:35:20;;;;;;;6.93;2.10;;;;;;;33.44;29.74;99205.38;5028932;28;20140;-68
2022/08/04 08:37:53;;;;;;;8.05;2.20;;;;;;;33.36;30.52;99203.00;5029714;28;20054;-68
2022/08/04 08:40:30;;;;;;;4.20;2.25;;;;;;;33.35;30.47;99195.84;5030408;28;20049;-68
2022/08/04 08:43:35;;;;;;;6.93;1.95;;;;;;;33.32;31.21;99204.53;5027139;28;20057;-68
2022/08/04 08:46:39;;;;;;;11.65;2.42;;;;;;;33.21;31.27;99200.75;4991432;28;20063;-69
2022/08/04 08:49:26;;;;;;;3.33;2.05;;;;;;;33.18;31.45;99200.38;5007997;28;20124;-68
2022/08/04 08:52:03;;;;;;;2.90;1.60;;;;;;;33.22;31.02;99207.88;5010127;28;20077;-69
2022/08/04 08:54:54;;;;;;;3.45;1.77;;;;;;;33.23;31.12;99206.81;5008958;28;20743;-68
2022/08/04 08:57:35;;;;;;;4.78;2.65;;;;;;;33.28;31.11;99211.56;5009809;28;20056;-67
2022/08/04 09:00:11;;;;;;;5.63;2.60;;;;;;;33.25;31.44;99222.94;5011700;28;20512;-68
2022/08/04 09:03:18;;;;;;;11.50;3.05;;;;;;;33.17;31.92;99221.41;5016547;28;20047;-68
2022/08/04 09:06:15;;;;;;;5.75;2.28;;;;;;;33.14;30.92;99227.34;5028645;28;20053;-67
2022/08/04 09:08:55;;;;;;;7.55;2.00;;;;;;;33.11;30.45;99227.84;5023376;28;20049;-68
2022/08/04 09:11:25;;;;;;;7.00;2.20;;;;;;;33.42;29.64;99237.56;5028942;28;20045;-68
2022/08/04 09:13:56;;;;;;;6.22;1.77;;;;;;;33.64;29.70;99226.88;5028283;28;20626;-68
2022/08/04 09:16:31;;;;;;;6.82;2.00;;;;;;;33.42;30.24;99237.56;5037369;28;20071;-68
2022/08/04 09:19:08;;;;;;;9.32;2.67;;;;;;;33.36;30.35;99242.09;5048633;28;20420;-68
2022/08/04 09:21:39;;;;;;;4.80;2.00;;;;;;;33.26;30.57;99241.03;5040320;28;20721;-68
2022/08/04 09:24:11;;;;;;;8.98;2.78;;;;;;;33.70;30.54;99239.59;5028314;28;20504;-68
2022/08/04 09:26:44;;;;;;;6.30;2.33;;;;;;;33.70;30.23;99239.59;5028552;28;20060;-67
2022/08/04 09:29:17;;;;;;;13.60;2.05;;;;;;;33.48;30.93;99238.53;5030816;28;20077;-67
2022/08/04 09:31:52;;;;;;;7.47;2.10;;;;;;;33.28;31.57;99244.34;5033034;28;20077;-68
2022/08/04 09:34:35;;;;;;;11.02;2.40;;;;;;;33.09;31.36;99249.09;5034300;28;20071;-68
2022/08/04 09:37:12;;;;;;;6.05;2.30;;;;;;;32.91;32.00;99256.28;5049459;28;20062;-68
2022/08/04 09:39:46;;;;;;;3.50;2.17;;;;;;;32.67;32.21;99255.38;5049283;28;20554;-67
2022/08/04 09:42:23;;;;;;;5.80;2.50;;;;;;;32.39;32.85;99255.97;5037892;28;20052;-67
2022/08/04 09:44:57;;;;;;;5.30;2.25;;;;;;;32.23;32.83;99262.03;5028550;28;20703;-67
2022/08/04 09:47:30;;;;;;;6.10;2.13;;;;;;;32.17;33.10;99269.25;5029188;28;20060;-68
2022/08/04 09:50:09;;;;;;;5.00;2.38;;;;;;;32.21;33.68;99272.34;5029178;28;20515;-68
2022/08/04 09:52:46;;;;;;;9.43;2.50;;;;;;;32.27;33.56;99283.19;5028703;28;20095;-68
2022/08/04 09:55:24;;;;;;;5.43;2.25;;;;;;;32.42;33.60;99288.25;5013741;28;20050;-68
2022/08/04 09:58:01;;;;;;;3.72;2.30;;;;;;;32.91;32.86;99288.22;5009497;28;20052;-68
2022/08/04 10:00:34;;;;;;;7.30;2.75;;;;;;;33.23;33.05;99288.78;5009245;28;20076;-68
2022/08/04 10:03:01;;;;;;;7.53;2.75;;;;;;;33.70;31.98;99282.53;5009174;28;20054;-69
2022/08/04 10:05:44;;;;;;;11.43;3.40;;;;;;;33.13;32.78;99288.53;5008510;28;20053;-68
2022/08/04 10:08:29;;;;;;;11.25;3.50;;;;;;;32.84;33.32;99291.03;5009215;28;20049;-68
2022/08/04 10:11:06;;;;;;;5.13;2.42;;;;;;;32.74;33.35;99289.94;5009271;28;20074;-68
2022/08/04 10:13:47;;;;;;;10.75;2.92;;;;;;;32.55;33.83;99294.63;5008991;28;20049;-68
2022/08/04 10:16:35;;;;;;;7.65;2.67;;;;;;;32.59;34.19;99298.53;5008609;28;20053;-68
2022/08/04 10:19:15;;;;;;;5.03;2.55;;;;;;;32.59;34.39;99302.13;5008806;28;20542;-68
2022/08/04 10:21:55;;;;;;;5.30;2.40;;;;;;;32.38;34.55;99294.38;5017805;28;20060;-67
2022/08/04 10:24:35;;;;;;;8.00;3.40;;;;;;;32.12;34.49;99301.84;5023322;28;20502;-68
2022/08/04 10:27:07;;;;;;;14.27;2.90;;;;;;;31.84;35.48;99307.78;5029080;28;20424;-67
2022/08/04 10:29:42;;;;;;;10.18;3.05;;;;;;;31.65;36.14;99298.72;5028436;28;20473;-67
2022/08/04 10:32:14;;;;;;;6.55;2.83;;;;;;;31.57;36.54;99310.75;5028737;28;20056;-67
2022/08/04 10:34:43;;;;;;;9.60;3.97;;;;;;;31.46;36.57;99303.34;5028442;28;20131;-67
2022/08/04 10:37:19;;;;;;;5.32;2.80;;;;;;;31.29;37.11;99308.47;5028412;28;20095;-66
2022/08/04 10:42:41;;;;;;;19.17;2.95;;;;;;;30.98;37.18;99299.25;5028199;28;20046;-68
2022/08/04 10:45:16;;;;;;;6.97;2.92;;;;;;;30.75;37.37;99309.88;5027485;28;20057;-68
2022/08/04 10:47:50;;;;;;;3.72;2.38;;;;;;;30.57;37.64;99310.59;5027519;28;20078;-68
2022/08/04 10:50:21;;;;;;;5.45;2.63;;;;;;;30.41;37.84;99311.94;5026899;28;20076;-68
2022/08/04 10:52:59;;;;;;;7.60;2.70;;;;;;;30.30;37.92;99315.31;5045727;28;20049;-68
2022/08/04 10:55:32;;;;;;;8.90;2.75;;;;;;;30.12;38.49;99326.84;5046825;28;20068;-68
2022/08/04 10:58:02;;;;;;;7.32;3.05;;;;;;;29.90;40.80;99318.13;5048412;28;20041;-67
2022/08/04 11:00:31;;;;;;;7.28;3.22;;;;;;;29.68;42.18;99309.38;5048353;28;20053;-68
2022/08/04 11:03:05;;;;;;;6.28;3.25;;;;;;;29.57;42.90;99293.72;5048088;28;20060;-68
2022/08/04 11:05:39;;;;;;;14.80;3.08;;;;;;;29.41;44.30;99303.97;5048807;28;20057;-67
2022/08/04 11:08:13;;;;;;;7.57;3.45;;;;;;;29.26;44.97;99301.44;5038179;28;20041;-67
2022/08/04 11:10:45;;;;;;;6.13;2.95;;;;;;;29.16;45.67;99306.44;5012385;28;20045;-66
2022/08/04 11:13:15;;;;;;;6.00;2.63;;;;;;;29.10;45.05;99302.69;5012181;28;20053;-67
2022/08/04 11:15:49;;;;;;;8.40;3.08;;;;;;;29.24;44.63;99306.28;5011842;28;20601;-68
2022/08/04 11:18:25;;;;;;;8.68;2.80;;;;;;;29.56;44.22;99303.75;5023664;28;20058;-67
2022/08/04 11:21:00;;;;;;;13.00;3.83;;;;;;;29.75;43.46;99310.22;5031780;28;20060;-66
2022/08/04 11:23:33;;;;;;;10.70;3.00;;;;;;;29.82;43.85;99307.50;5031945;28;20057;-68
2022/08/04 11:26:06;;;;;;;12.63;3.60;;;;;;;29.93;42.71;99307.69;5031088;28;20053;-68
2022/08/04 11:28:46;;;;;;;7.25;3.53;;;;;;;30.27;41.50;99300.25;5031660;28;20055;-66
2022/08/04 11:31:18;;;;;;;6.88;3.40;;;;;;;30.29;41.27;99294.63;5031792;28;20052;-67
2022/08/04 11:33:49;;;;;;;8.15;3.50;;;;;;;30.27;41.79;99297.53;5031643;28;20084;-67
2022/08/04 11:36:22;;;;;;;6.13;3.20;;;;;;;30.21;42.09;99301.09;5031565;28;20052;-67
2022/08/04 11:39:00;;;;;;;9.90;2.95;;;;;;;30.14;42.41;99303.00;5031844;28;20139;-67
2022/08/04 11:41:39;;;;;;;17.55;3.90;;;;;;;30.14;42.47;99295.69;5031771;28;20049;-66
2022/08/04 11:44:11;;;;;;;10.05;3.65;;;;;;;30.13;42.63;99299.47;5031555;28;20055;-68
2022/08/04 11:46:42;;;;;;;4.78;3.13;;;;;;;30.29;42.24;99310.94;5031833;28;20049;-67
2022/08/04 11:49:16;;;;;;;11.25;4.45;;;;;;;30.25;42.78;99313.25;5031745;28;20053;-69
2022/08/04 11:51:44;;;;;;;12.77;3.90;;;;;;;30.50;42.39;99310.63;5031514;28;20056;-68
2022/08/04 11:54:14;;;;;;;12.23;4.55;;;;;;;30.58;41.54;99317.72;5031324;28;20053;-67
2022/08/04 11:56:41;;;;;;;9.60;3.20;;;;;;;30.74;41.17;99319.94;5028408;28;20056;-67
2022/08/04 11:59:08;;;;;;;8.93;2.70;;;;;;;30.74;41.24;99328.09;5011387;28;20527;-68
2022/08/04 12:01:47;;;;;;;12.63;3.25;;;;;;;30.79;40.34;99319.25;5011445;28;20053;-66
2022/08/04 12:04:18;;;;;;;9.48;2.90;;;;;;;30.82;40.00;99327.00;5010769;28;20049;-68
2022/08/04 12:06:51;;;;;;;7.93;3.30;;;;;;;30.79;39.54;99321.97;5011483;28;20096;-68
2022/08/04 12:09:29;;;;;;;9.85;3.30;;;;;;;30.79;39.58;99314.66;5011871;28;20564;-68
2022/08/04 12:12:07;;;;;;;7.80;3.03;;;;;;;30.75;40.12;99316.16;5011635;28;20107;-68
2022/08/04 12:14:44;;;;;;;5.90;2.42;;;;;;;30.81;40.31;99317.16;5022839;28;20401;-67
2022/08/04 12:17:12;;;;;;;9.70;3.70;;;;;;;30.92;40.07;99310.22;5024174;28;20107;-67
2022/08/04 12:19:44;;;;;;;9.15;3.10;;;;;;;30.99;39.69;99303.69;5031831;28;20213;-68
2022/08/04 12:22:21;;;;;;;8.32;3.40;;;;;;;31.03;39.94;99309.50;5031507;28;20059;-68